Chepachet, RI (02814)

6:37 PM EST on January 20, 2017 (GMT -0500)
Chepachet RI, country | | Change Station
Active Advisory: Gale Watch

Elev 436 ft 41.88 °N, 71.68 °W | Updated 23 seconds ago

Overcast
Overcast
36.9 °F
Feels Like 37 °F
N
0.0
Wind Variable Wind from West
Gusts 0.0 mph

Today
High -- | Low -- °F
--% Chance of Precip.
Yesterday
High -- | Low -- °F
Precip. -- in
Pressure 30.02 in
Visibility 10.0 miles
Clouds Overcast 2800 ft
Windchill 37 °F
Dew Point 31 °F
Humidity 78%
Rainfall 0.00 in
Snow Depth Not available.
7:09 AM 4:46 PM
Last Quarter, 40% visible
METAR KSFZ 202256Z AUTO 00000KT 10SM OVC028 03/M01 A2995 RMK AO2 SLP164 T00331011
Pressure 30.02 in
Visibility 10.0 miles
Clouds Overcast 2800 ft
Windchill 37 °F
Dew Point 31 °F
Humidity 78%
Rainfall 0.00 in
Snow Depth Not available.
7:09 AM 4:46 PM
Last Quarter, 40% visible
METAR KSFZ 202256Z AUTO 00000KT 10SM OVC028 03/M01 A2995 RMK AO2 SLP164 T00331011

Get Your Daily Forecast Email!

Thanks for signing up!

Be on the lookout for a verification email in your inbox.

You'll start receiving the daily forecast at 8 AM.

×

10-Day Weather Forecast

Almanac

Astronomy

Jan. 20, 2017 Rise Set
Actual Time
Civil Twilight
Nautical Twilight
Astronomical Twilight
Moon
Length of Visible Light
Length of Day
Tomorrow will be .
, % of the Moon is Illuminated

Today's Extremes

State Highs State Lows

Community

WunderPhotos

Upload Photos

1,962,540 photos uploaded!

WunderBlog® & News

Nearby

Air Quality

  Air Quality AQ Index Pollutant
Not available.

Snow Depth

Station Depth Elevation

Earthquake Activity

City Distance Mag. Time & Date
Minimum magnitude displayed is 2.5.

Coastal Water Temperatures

Place Temperature

Stations

Nearby Weather Stations

Station Location Temp. Windchill Dew Point Humidity Wind Precip. Elev Updated Type
                   

Watches & Warnings

Gale Watch
Issued: 4:20 PM EST Jan. 20, 2017 – National Weather Service

... Gale watch in effect from late Sunday night through late
Monday night...

The National Weather Service in Taunton has issued a gale watch...
which is in effect from late Sunday night through late Monday
night.

* Winds and seas... northeast winds 20 to 30 kt with gusts up to
40 kt. Seas around 3 feet.

Precautionary/preparedness actions...

A gale watch is issued when the risk of gale force winds of 34 to
47 knots has significantly increased... but the specific timing
and/or location is still uncertain. It is intended to provide
additional lead time for mariners who may wish to consider
altering their plans.